Time;durP1;ratioP1;P1;durP2;ratioP2;P2;SDS_P1;SDS_P2;PMS_P1;PMS_P2;Temp;Humidity;BMP_temperature;BMP_pressure;BME280_temperature;BME280_humidity;BME280_pressure;Samples;Min_cycle;Max_cycle;Signal;HPM_P1;HPM_P2
2021/12/29 00:02:18;;;;;;;24.40;4.57;;;7.20;99.90;;;;;;5084619;28;20474;-65
2021/12/29 00:04:44;;;;;;;26.52;4.70;;;7.20;99.90;;;;;;5074463;28;20402;-67
2021/12/29 00:07:12;;;;;;;22.17;4.15;;;7.20;99.90;;;;;;5084362;28;20123;-65
2021/12/29 00:09:40;;;;;;;30.70;5.80;;;7.20;99.90;;;;;;5081730;28;20425;-65
2021/12/29 00:12:10;;;;;;;37.13;6.32;;;7.20;99.90;;;;;;5091966;28;20040;-65
2021/12/29 00:14:37;;;;;;;48.05;6.70;;;7.20;99.90;;;;;;5088598;28;20035;-66
2021/12/29 00:17:03;;;;;;;42.45;6.32;;;7.20;99.90;;;;;;5084032;28;20059;-65
2021/12/29 00:19:29;;;;;;;53.85;6.75;;;7.20;99.90;;;;;;5090666;28;20116;-65
2021/12/29 00:21:55;;;;;;;39.45;6.22;;;7.20;99.90;;;;;;5081597;28;20394;-65
2021/12/29 00:24:21;;;;;;;45.85;7.05;;;7.20;99.90;;;;;;5079433;28;20086;-65
2021/12/29 00:26:47;;;;;;;67.10;8.77;;;7.20;99.90;;;;;;5085678;28;20064;-64
2021/12/29 00:29:14;;;;;;;54.70;7.97;;;7.20;99.90;;;;;;5079201;28;20368;-66
2021/12/29 00:31:39;;;;;;;85.60;9.48;;;7.20;99.90;;;;;;5085017;28;20040;-65
2021/12/29 00:34:05;;;;;;;64.25;7.55;;;7.20;99.90;;;;;;5079518;28;20503;-66
2021/12/29 00:36:30;;;;;;;107.05;13.38;;;7.20;99.90;;;;;;5101674;28;20032;-64
2021/12/29 00:38:56;;;;;;;107.45;12.25;;;7.20;99.90;;;;;;5106591;28;20067;-64
2021/12/29 00:41:21;;;;;;;108.20;11.32;;;7.20;99.90;;;;;;5101264;28;20080;-64
2021/12/29 00:43:47;;;;;;;171.27;14.50;;;7.20;99.90;;;;;;5090044;28;20082;-65
2021/12/29 00:46:17;;;;;;;179.68;14.80;;;7.20;99.90;;;;;;5063198;28;20040;-64
2021/12/29 00:48:44;;;;;;;157.27;12.65;;;7.20;99.90;;;;;;5090989;28;20023;-64
2021/12/29 00:51:11;;;;;;;128.32;11.55;;;7.20;99.90;;;;;;5098509;28;20466;-65
2021/12/29 00:53:37;;;;;;;116.05;12.70;;;7.20;99.90;;;;;;5096629;28;20036;-64
2021/12/29 00:56:04;;;;;;;110.05;11.15;;;7.20;99.90;;;;;;5090618;28;20212;-65
2021/12/29 00:58:30;;;;;;;125.55;13.05;;;7.20;99.90;;;;;;5094106;28;20387;-64
2021/12/29 01:00:56;;;;;;;112.13;12.18;;;7.20;99.90;;;;;;5090541;28;20495;-65
2021/12/29 01:03:22;;;;;;;156.02;13.65;;;7.20;99.90;;;;;;5089046;28;20067;-65
2021/12/29 01:05:48;;;;;;;117.38;13.60;;;7.20;99.90;;;;;;5095162;28;20040;-64
2021/12/29 01:08:14;;;;;;;137.77;13.95;;;7.20;99.90;;;;;;5094587;28;20120;-64
2021/12/29 01:10:41;;;;;;;147.85;13.27;;;7.20;99.90;;;;;;5099958;28;20481;-64
2021/12/29 01:13:10;;;;;;;249.93;18.67;;;7.20;99.90;;;;;;5093898;28;20100;-65
2021/12/29 01:18:27;;;;;;;201.00;15.95;;;7.20;99.90;;;;;;5098925;28;20051;-65
2021/12/29 01:20:54;;;;;;;215.73;17.23;;;7.20;99.90;;;;;;5073386;28;20478;-65
2021/12/29 01:23:19;;;;;;;171.35;16.20;;;7.20;99.90;;;;;;5093301;28;20141;-65
2021/12/29 01:25:45;;;;;;;190.05;17.58;;;7.20;99.90;;;;;;5083554;28;20079;-65
2021/12/29 01:28:10;;;;;;;114.95;13.05;;;7.20;99.90;;;;;;5087743;28;20064;-65
2021/12/29 01:30:36;;;;;;;134.50;13.45;;;7.20;99.90;;;;;;5079283;28;20034;-65
2021/12/29 01:33:05;;;;;;;174.77;15.80;;;7.30;99.90;;;;;;5096837;28;20439;-66
2021/12/29 01:35:35;;;;;;;108.57;12.43;;;7.30;99.90;;;;;;5087391;28;20127;-66
2021/12/29 01:38:02;;;;;;;129.57;12.52;;;7.30;99.90;;;;;;5077510;28;20479;-66
2021/12/29 01:40:29;;;;;;;127.60;14.35;;;7.30;99.90;;;;;;5066033;28;20472;-65
2021/12/29 01:42:55;;;;;;;177.75;17.83;;;7.30;99.90;;;;;;5088588;28;20036;-66
2021/12/29 01:45:21;;;;;;;150.90;18.33;;;7.40;99.90;;;;;;5095427;28;20077;-65
2021/12/29 01:47:48;;;;;;;190.07;19.52;;;7.40;99.90;;;;;;5093726;28;20032;-66
2021/12/29 01:50:14;;;;;;;178.65;19.25;;;7.40;99.90;;;;;;5076388;28;20039;-66
2021/12/29 01:52:41;;;;;;;218.55;22.75;;;7.40;99.90;;;;;;5088989;28;20048;-65
2021/12/29 01:55:14;;;;;;;176.38;18.85;;;7.40;99.90;;;;;;5089441;28;20063;-66
2021/12/29 01:57:41;;;;;;;231.60;24.65;;;7.40;99.90;;;;;;5103017;28;20044;-66
2021/12/29 02:00:11;;;;;;;147.45;18.70;;;7.40;99.90;;;;;;5089954;28;20040;-67
2021/12/29 02:02:38;;;;;;;232.35;25.20;;;7.40;99.90;;;;;;5099879;28;20044;-64
2021/12/29 02:05:04;;;;;;;190.35;22.17;;;7.50;99.90;;;;;;5088428;28;20040;-67
2021/12/29 02:07:30;;;;;;;203.30;21.20;;;7.50;99.90;;;;;;5093572;28;20399;-66
2021/12/29 02:09:55;;;;;;;153.82;18.88;;;7.50;99.90;;;;;;5090327;28;20051;-66
2021/12/29 02:12:21;;;;;;;141.98;17.40;;;7.60;99.90;;;;;;5099585;28;20041;-65
2021/12/29 02:14:47;;;;;;;105.18;17.25;;;7.60;99.90;;;;;;5068312;28;20050;-64
2021/12/29 02:17:13;;;;;;;144.25;23.05;;;7.70;99.90;;;;;;5089987;28;20047;-64
2021/12/29 02:19:45;;;;;;;132.95;22.30;;;7.80;99.90;;;;;;5084229;28;20071;-67
2021/12/29 02:22:40;;;;;;;131.75;20.00;;;7.80;99.90;;;;;;5083709;28;20043;-65
2021/12/29 02:25:52;;;;;;;134.88;23.35;;;7.90;99.90;;;;;;5091507;28;20074;-65
2021/12/29 02:27:54;;;;;;;89.07;17.88;;;7.90;99.90;;;;;;5082987;28;20172;-64
2021/12/29 02:30:24;;;;;;;114.28;20.70;;;7.90;99.90;;;;;;5084738;28;20090;-65
2021/12/29 02:32:54;;;;;;;160.88;24.92;;;8.00;99.90;;;;;;5080664;28;20514;-64
2021/12/29 02:35:20;;;;;;;181.82;27.88;;;7.90;99.90;;;;;;5084298;28;20059;-65
2021/12/29 02:37:46;;;;;;;144.13;25.67;;;7.90;99.90;;;;;;5085963;28;20036;-65
2021/12/29 02:40:13;;;;;;;104.30;18.67;;;8.00;99.90;;;;;;5092586;28;20517;-65
2021/12/29 02:42:42;;;;;;;94.18;17.70;;;7.90;99.90;;;;;;5074936;28;20475;-65
2021/12/29 02:45:11;;;;;;;80.72;17.42;;;7.90;99.90;;;;;;5083075;28;20115;-65
2021/12/29 02:47:36;;;;;;;99.60;19.80;;;7.90;99.90;;;;;;5087572;28;20034;-67
2021/12/29 02:50:38;;;;;;;91.60;18.50;;;7.90;99.90;;;;;;5084666;28;20110;-65
2021/12/29 02:53:03;;;;;;;101.47;19.95;;;7.90;99.90;;;;;;5107230;28;20388;-64
2021/12/29 02:55:29;;;;;;;102.95;20.48;;;7.90;99.90;;;;;;5113418;28;20466;-66
2021/12/29 02:57:54;;;;;;;124.82;21.80;;;7.90;99.90;;;;;;5108728;28;20064;-65
2021/12/29 03:00:20;;;;;;;128.25;24.42;;;7.90;99.90;;;;;;5098908;28;20396;-66
2021/12/29 03:02:46;;;;;;;127.15;24.08;;;7.90;99.90;;;;;;5103769;28;20032;-66
2021/12/29 03:05:12;;;;;;;113.82;23.13;;;7.80;99.90;;;;;;5098605;28;20050;-65
2021/12/29 03:07:37;;;;;;;122.80;23.13;;;7.80;99.90;;;;;;5092644;28;20036;-67
2021/12/29 03:10:03;;;;;;;124.28;22.63;;;7.80;99.90;;;;;;5075517;28;20494;-65
2021/12/29 03:12:29;;;;;;;90.60;19.42;;;7.80;99.90;;;;;;5084563;28;20047;-66
2021/12/29 03:14:58;;;;;;;81.45;17.50;;;7.80;99.90;;;;;;5086139;28;20047;-65
2021/12/29 03:17:23;;;;;;;141.07;25.00;;;7.80;99.90;;;;;;5101689;28;20056;-66
2021/12/29 03:19:55;;;;;;;94.40;20.20;;;7.80;99.90;;;;;;5098135;28;20036;-66
2021/12/29 03:22:21;;;;;;;85.53;18.93;;;7.80;99.90;;;;;;5093686;28;20032;-65
2021/12/29 03:24:46;;;;;;;92.32;20.42;;;7.80;99.90;;;;;;5093517;28;20282;-65
2021/12/29 03:27:12;;;;;;;67.13;15.57;;;7.80;99.90;;;;;;5091930;28;20040;-65
2021/12/29 03:29:37;;;;;;;63.60;14.48;;;7.80;99.90;;;;;;5094357;28;20066;-65
2021/12/29 03:32:07;;;;;;;91.63;20.45;;;7.80;99.90;;;;;;5092816;28;20405;-66
2021/12/29 03:34:33;;;;;;;90.25;19.38;;;7.80;99.90;;;;;;5093891;28;20565;-65
2021/12/29 03:36:58;;;;;;;73.55;18.00;;;7.70;99.90;;;;;;5076539;28;20131;-65
2021/12/29 03:39:26;;;;;;;102.78;19.58;;;7.70;99.90;;;;;;5096735;28;20050;-65
2021/12/29 03:41:52;;;;;;;80.47;17.90;;;7.70;99.90;;;;;;5088543;28;20407;-64
2021/12/29 03:44:18;;;;;;;56.97;13.35;;;7.70;99.90;;;;;;5090669;28;20028;-66
2021/12/29 03:46:43;;;;;;;111.15;22.77;;;7.70;99.90;;;;;;5086144;28;20558;-65
2021/12/29 03:49:09;;;;;;;112.15;25.13;;;7.70;99.90;;;;;;5091516;28;20131;-64
2021/12/29 03:51:35;;;;;;;94.13;21.77;;;7.70;99.90;;;;;;5088596;28;20048;-65
2021/12/29 03:54:04;;;;;;;101.93;24.40;;;7.60;99.90;;;;;;5091196;28;20486;-65
2021/12/29 03:56:30;;;;;;;98.78;20.55;;;7.60;99.90;;;;;;5104456;28;20050;-66
2021/12/29 03:58:56;;;;;;;76.18;18.42;;;7.60;99.90;;;;;;5106599;28;20474;-65
2021/12/29 04:01:25;;;;;;;126.57;26.38;;;7.60;99.90;;;;;;5090025;28;20169;-66
2021/12/29 04:03:51;;;;;;;139.95;26.33;;;7.60;99.90;;;;;;5087589;28;20554;-66
2021/12/29 04:06:18;;;;;;;114.53;21.60;;;7.60;99.90;;;;;;5071386;28;20032;-65
2021/12/29 04:08:44;;;;;;;170.13;30.55;;;7.60;99.90;;;;;;5091699;28;20039;-65
2021/12/29 04:11:10;;;;;;;139.05;28.60;;;7.60;99.90;;;;;;5091882;28;20497;-66
2021/12/29 04:13:36;;;;;;;109.05;17.60;;;7.50;99.90;;;;;;5075595;28;20028;-65
2021/12/29 04:16:02;;;;;;;98.38;22.13;;;7.60;99.90;;;;;;5090128;28;20032;-67
2021/12/29 04:18:27;;;;;;;140.93;26.13;;;7.50;99.90;;;;;;5096014;28;20062;-65
2021/12/29 04:21:00;;;;;;;113.65;22.67;;;7.60;99.90;;;;;;5087327;28;20043;-66
2021/12/29 04:23:32;;;;;;;115.13;23.33;;;7.60;99.90;;;;;;5085165;28;20029;-65
2021/12/29 04:26:00;;;;;;;107.97;23.65;;;7.60;99.90;;;;;;5086268;28;20039;-65
2021/12/29 04:28:26;;;;;;;87.90;18.40;;;7.60;99.90;;;;;;5080277;28;20036;-67
2021/12/29 04:31:12;;;;;;;100.90;22.27;;;7.60;99.90;;;;;;5091152;28;20040;-66
2021/12/29 04:33:38;;;;;;;144.00;26.80;;;7.60;99.90;;;;;;5088797;28;20482;-65
2021/12/29 04:36:04;;;;;;;100.70;19.95;;;7.60;99.90;;;;;;5091230;28;20044;-65
2021/12/29 04:38:30;;;;;;;69.35;15.30;;;7.60;99.90;;;;;;5079295;28;20043;-66
2021/12/29 04:40:56;;;;;;;89.70;18.52;;;7.70;99.90;;;;;;5087681;28;20040;-65
2021/12/29 04:43:23;;;;;;;99.40;24.15;;;7.70;99.90;;;;;;5072212;28;20183;-64
2021/12/29 04:45:49;;;;;;;139.65;27.92;;;7.70;99.90;;;;;;5087861;28;20040;-65
2021/12/29 04:48:16;;;;;;;142.15;27.08;;;7.70;99.90;;;;;;5082750;28;20051;-65
2021/12/29 04:50:50;;;;;;;112.20;20.95;;;7.80;99.90;;;;;;5077283;28;20501;-67
2021/12/29 04:53:17;;;;;;;120.40;22.92;;;7.80;99.90;;;;;;5073272;28;20044;-65
2021/12/29 04:55:45;;;;;;;135.23;23.05;;;7.80;99.90;;;;;;5091566;28;20040;-64
2021/12/29 04:58:12;;;;;;;98.45;20.77;;;7.80;99.90;;;;;;5090720;28;20032;-65
2021/12/29 05:00:38;;;;;;;98.93;18.38;;;7.80;99.90;;;;;;5091557;28;20046;-65
2021/12/29 05:03:04;;;;;;;96.15;21.35;;;7.80;99.90;;;;;;5092020;28;20122;-66
2021/12/29 05:10:40;;;;;;;96.18;18.85;;;7.80;99.90;;;;;;5089887;28;20070;-66
2021/12/29 05:13:05;;;;;;;133.52;20.85;;;7.80;99.90;;;;;;5091829;28;20036;-65
2021/12/29 05:15:31;;;;;;;170.95;25.48;;;7.80;99.90;;;;;;5091191;28;20395;-66
2021/12/29 05:17:58;;;;;;;137.10;24.58;;;7.80;99.90;;;;;;5064254;28;20046;-66
2021/12/29 05:20:26;;;;;;;190.90;30.73;;;7.80;99.90;;;;;;5091038;28;20118;-65
2021/12/29 05:22:52;;;;;;;111.38;19.15;;;7.70;99.90;;;;;;5094065;28;20036;-68
2021/12/29 05:25:17;;;;;;;115.60;21.60;;;7.70;99.90;;;;;;5093125;28;20047;-66
2021/12/29 05:27:44;;;;;;;135.63;22.38;;;7.80;99.90;;;;;;5098329;28;20123;-66
2021/12/29 05:30:10;;;;;;;155.48;25.38;;;7.70;99.90;;;;;;5074587;28;20087;-65
2021/12/29 05:32:36;;;;;;;146.38;22.92;;;7.70;99.90;;;;;;5092807;28;20486;-65
2021/12/29 05:35:02;;;;;;;133.23;23.77;;;7.70;99.90;;;;;;5093143;28;20075;-66
2021/12/29 05:37:28;;;;;;;193.93;27.65;;;7.70;99.90;;;;;;5094133;28;20040;-66
2021/12/29 05:39:53;;;;;;;216.95;30.17;;;7.70;99.90;;;;;;5088947;28;20044;-66
2021/12/29 05:42:19;;;;;;;185.23;27.60;;;7.70;99.90;;;;;;5079886;28;20470;-68
2021/12/29 05:44:45;;;;;;;115.32;22.63;;;7.70;99.90;;;;;;5094268;28;20054;-67
2021/12/29 05:47:10;;;;;;;149.10;21.58;;;7.70;99.90;;;;;;5070308;28;20119;-65
2021/12/29 05:49:36;;;;;;;96.20;17.48;;;7.70;99.90;;;;;;5097973;28;20184;-66
2021/12/29 05:52:01;;;;;;;179.02;28.25;;;7.70;99.90;;;;;;5092003;28;20059;-65
2021/12/29 05:54:27;;;;;;;131.13;21.13;;;7.70;99.90;;;;;;5070901;28;20043;-66
2021/12/29 05:56:53;;;;;;;129.18;22.02;;;7.70;99.90;;;;;;5069083;28;20438;-66
2021/12/29 05:59:19;;;;;;;154.63;27.10;;;7.70;99.90;;;;;;5091673;28;20050;-67
2021/12/29 06:01:45;;;;;;;150.18;23.60;;;7.70;99.90;;;;;;5094815;28;20036;-66
2021/12/29 06:04:11;;;;;;;200.13;26.20;;;7.70;99.90;;;;;;5086348;28;20036;-67
2021/12/29 06:06:37;;;;;;;195.88;27.13;;;7.70;99.90;;;;;;5105902;28;20126;-66
2021/12/29 06:09:03;;;;;;;113.85;19.95;;;7.70;99.90;;;;;;5094736;28;20072;-65
2021/12/29 06:11:29;;;;;;;153.18;23.20;;;7.60;99.90;;;;;;5085513;28;20093;-66
2021/12/29 06:13:54;;;;;;;199.88;25.38;;;7.60;99.90;;;;;;5090551;28;20264;-66
2021/12/29 06:16:20;;;;;;;165.30;23.35;;;7.60;99.90;;;;;;5102475;28;20336;-66
2021/12/29 06:18:45;;;;;;;162.90;24.33;;;7.60;99.90;;;;;;5089383;28;20040;-66
2021/12/29 06:21:16;;;;;;;151.27;19.35;;;7.60;99.90;;;;;;5086644;28;20032;-67
2021/12/29 06:23:46;;;;;;;114.50;17.63;;;7.60;99.90;;;;;;5083540;28;20502;-66
2021/12/29 06:26:12;;;;;;;211.15;24.83;;;7.60;99.90;;;;;;5094309;28;20119;-66
2021/12/29 06:28:38;;;;;;;192.00;23.60;;;7.60;99.90;;;;;;5089567;28;20126;-65
2021/12/29 06:31:04;;;;;;;187.82;23.85;;;7.60;99.90;;;;;;5102925;28;20044;-66
2021/12/29 06:33:30;;;;;;;143.40;22.65;;;7.60;99.90;;;;;;5091959;28;20035;-66
2021/12/29 06:35:55;;;;;;;142.07;20.13;;;7.60;99.90;;;;;;5085556;28;20036;-65
2021/12/29 06:38:22;;;;;;;129.02;18.45;;;7.60;99.90;;;;;;5090016;28;20039;-65
2021/12/29 06:40:47;;;;;;;149.00;20.75;;;7.60;99.90;;;;;;5091409;28;20043;-66
2021/12/29 06:43:13;;;;;;;142.45;22.25;;;7.60;99.90;;;;;;5096298;28;20486;-66
2021/12/29 06:45:38;;;;;;;146.13;19.80;;;7.70;99.90;;;;;;5077463;28;20032;-66
2021/12/29 06:48:04;;;;;;;171.15;19.52;;;7.70;99.90;;;;;;5083115;28;20032;-66
2021/12/29 06:50:30;;;;;;;171.20;21.13;;;7.60;99.90;;;;;;5125084;27;20036;-66
2021/12/29 06:52:55;;;;;;;208.07;24.27;;;7.70;99.90;;;;;;5097360;28;20531;-66
2021/12/29 06:55:21;;;;;;;135.85;19.35;;;7.70;99.90;;;;;;5093783;28;20352;-66
2021/12/29 06:57:47;;;;;;;193.90;24.88;;;7.70;99.90;;;;;;5091887;28;20128;-65
2021/12/29 07:00:14;;;;;;;185.25;21.65;;;7.70;99.90;;;;;;5084832;28;20111;-66
2021/12/29 07:02:40;;;;;;;142.13;20.35;;;7.70;99.90;;;;;;5093048;28;20048;-67
2021/12/29 07:05:06;;;;;;;230.95;25.60;;;7.60;99.90;;;;;;5085794;28;20162;-66
2021/12/29 07:07:32;;;;;;;194.95;24.35;;;7.70;99.90;;;;;;5083718;28;20065;-66
2021/12/29 07:09:57;;;;;;;244.25;27.98;;;7.60;99.90;;;;;;5092397;28;20461;-67
2021/12/29 07:12:23;;;;;;;200.75;24.92;;;7.70;99.90;;;;;;5097530;28;20453;-66
2021/12/29 07:14:48;;;;;;;178.38;22.83;;;7.60;99.90;;;;;;5082179;28;20046;-67
2021/12/29 07:17:14;;;;;;;205.55;26.40;;;7.70;99.90;;;;;;5097902;28;20047;-66
2021/12/29 07:19:40;;;;;;;262.38;29.10;;;7.60;99.90;;;;;;5092867;28;20044;-65
2021/12/29 07:22:06;;;;;;;223.77;25.60;;;7.70;99.90;;;;;;5110304;28;20032;-65
2021/12/29 07:24:33;;;;;;;209.43;24.98;;;7.70;99.90;;;;;;5093028;28;20040;-67
2021/12/29 07:26:59;;;;;;;161.25;21.35;;;7.60;99.90;;;;;;5092400;28;20040;-67
2021/12/29 07:29:25;;;;;;;177.60;21.30;;;7.60;99.90;;;;;;5100307;28;20510;-67
2021/12/29 07:35:31;;;;;;;175.77;21.95;;;7.70;99.90;;;;;;5087948;28;20026;-66
2021/12/29 07:37:57;;;;;;;193.15;22.77;;;7.60;99.90;;;;;;5092857;28;20043;-65
2021/12/29 07:40:22;;;;;;;153.63;21.58;;;7.60;99.90;;;;;;5092417;28;20047;-65
2021/12/29 07:42:48;;;;;;;163.82;21.50;;;7.60;99.90;;;;;;5092798;28;20036;-66
2021/12/29 07:45:14;;;;;;;134.68;19.27;;;7.60;99.90;;;;;;5092969;28;20394;-66
2021/12/29 07:47:46;;;;;;;131.55;18.38;;;7.60;99.90;;;;;;5092509;28;20047;-65
2021/12/29 07:50:12;;;;;;;131.50;17.15;;;7.60;99.90;;;;;;5075746;28;20429;-66
2021/12/29 07:52:38;;;;;;;99.78;17.52;;;7.60;99.90;;;;;;5088115;28;20044;-67
2021/12/29 07:55:04;;;;;;;115.55;15.70;;;7.70;99.90;;;;;;5089484;28;20391;-66
2021/12/29 07:57:30;;;;;;;115.03;16.50;;;7.70;99.90;;;;;;5078901;28;20064;-67
2021/12/29 08:00:28;;;;;;;141.52;19.23;;;7.70;99.90;;;;;;5079004;28;20071;-68
2021/12/29 08:02:54;;;;;;;158.73;19.23;;;7.70;99.90;;;;;;5098642;28;20047;-67
2021/12/29 08:05:20;;;;;;;253.20;23.85;;;7.80;99.90;;;;;;5077176;28;20390;-66
2021/12/29 08:07:46;;;;;;;262.80;23.60;;;7.70;99.90;;;;;;5082350;28;20042;-66
2021/12/29 08:10:13;;;;;;;246.25;23.50;;;7.70;99.90;;;;;;5107462;28;20055;-66
2021/12/29 08:12:38;;;;;;;322.58;28.02;;;7.70;99.90;;;;;;5091472;28;20036;-66
2021/12/29 08:15:05;;;;;;;346.98;28.17;;;7.80;99.90;;;;;;5086828;28;20051;-69
2021/12/29 08:17:32;;;;;;;260.08;24.88;;;7.80;99.90;;;;;;5084774;28;20046;-67
2021/12/29 08:20:03;;;;;;;238.50;22.10;;;7.80;99.90;;;;;;5086530;28;20606;-68
2021/12/29 08:22:30;;;;;;;308.38;26.20;;;7.80;99.90;;;;;;5104432;28;20036;-67
2021/12/29 08:24:56;;;;;;;300.98;26.58;;;7.90;99.90;;;;;;5105502;28;20067;-67
2021/12/29 08:27:22;;;;;;;266.35;24.27;;;7.90;99.90;;;;;;5086210;28;20064;-65
2021/12/29 08:29:51;;;;;;;327.58;25.65;;;7.90;99.90;;;;;;5073433;28;20048;-66
2021/12/29 08:32:17;;;;;;;395.83;27.85;;;7.90;99.90;;;;;;5075567;28;20062;-67
2021/12/29 08:34:43;;;;;;;266.67;24.40;;;7.90;99.90;;;;;;5090071;28;20036;-66
2021/12/29 08:40:51;;;;;;;279.35;24.98;;;8.00;99.90;;;;;;5092383;28;20082;-68
2021/12/29 08:43:17;;;;;;;242.50;22.17;;;8.00;99.90;;;;;;5076522;28;20044;-70
2021/12/29 08:45:44;;;;;;;236.45;23.25;;;8.00;99.90;;;;;;5088345;28;20437;-66
2021/12/29 08:48:11;;;;;;;239.80;24.70;;;8.00;99.90;;;;;;5083794;28;20064;-68
2021/12/29 08:50:47;;;;;;;172.50;22.73;;;8.00;99.90;;;;;;5085090;28;20048;-66
2021/12/29 08:53:13;;;;;;;119.75;16.27;;;8.00;99.90;;;;;;5074454;28;20407;-70
2021/12/29 08:55:46;;;;;;;148.85;20.02;;;8.00;99.90;;;;;;5090836;28;20039;-68
2021/12/29 08:58:13;;;;;;;132.88;18.38;;;8.10;99.90;;;;;;5095472;28;20040;-67
2021/12/29 09:00:39;;;;;;;123.07;17.52;;;8.00;99.90;;;;;;5095109;28;20514;-67
2021/12/29 09:03:06;;;;;;;139.27;18.77;;;8.10;99.90;;;;;;5078459;28;20036;-66
2021/12/29 09:05:32;;;;;;;163.43;19.70;;;8.10;99.90;;;;;;5095141;28;20044;-67
2021/12/29 09:07:58;;;;;;;147.38;20.60;;;8.10;99.90;;;;;;5065679;28;20063;-69
2021/12/29 09:10:23;;;;;;;148.95;21.27;;;8.00;99.90;;;;;;5093034;28;20136;-66
2021/12/29 09:12:51;;;;;;;140.02;20.90;;;8.10;99.90;;;;;;5102591;28;20118;-68
2021/12/29 09:15:20;;;;;;;123.80;20.25;;;8.00;99.90;;;;;;5087349;28;20044;-67
2021/12/29 09:17:46;;;;;;;126.82;20.83;;;8.00;99.90;;;;;;5091172;28;20063;-68
2021/12/29 09:20:24;;;;;;;136.48;21.30;;;8.00;99.90;;;;;;5111347;28;20125;-67
2021/12/29 09:22:51;;;;;;;113.53;18.13;;;8.00;99.90;;;;;;5092843;28;20289;-67
2021/12/29 09:25:19;;;;;;;118.57;20.33;;;8.00;99.90;;;;;;5094489;28;20035;-66
2021/12/29 09:27:49;;;;;;;95.80;17.05;;;8.00;99.90;;;;;;5086618;28;20044;-69
2021/12/29 09:30:43;;;;;;;110.85;17.90;;;8.00;99.90;;;;;;5088880;28;20050;-66
2021/12/29 09:33:10;;;;;;;97.97;17.35;;;8.00;99.90;;;;;;5078980;28;20099;-68
2021/12/29 09:35:36;;;;;;;96.53;17.48;;;8.00;99.90;;;;;;5103738;28;20040;-68
2021/12/29 09:38:03;;;;;;;89.00;16.45;;;8.00;99.90;;;;;;5081865;28;20514;-68
2021/12/29 09:40:29;;;;;;;95.80;17.42;;;8.00;99.90;;;;;;5089508;28;20051;-65
2021/12/29 09:42:55;;;;;;;93.78;17.38;;;8.00;99.90;;;;;;5094731;28;20479;-67
2021/12/29 09:49:02;;;;;;;91.68;15.85;;;8.00;99.90;;;;;;5095360;28;20437;-67
2021/12/29 09:51:28;;;;;;;83.43;14.93;;;8.00;99.90;;;;;;5094425;28;20032;-67
2021/12/29 09:53:54;;;;;;;70.93;14.65;;;8.00;99.90;;;;;;5093769;28;20044;-66
2021/12/29 10:00:03;;;;;;;91.85;16.23;;;8.00;99.90;;;;;;5095706;28;20069;-66
2021/12/29 10:02:29;;;;;;;95.35;16.80;;;8.00;99.90;;;;;;5094592;28;20047;-66
2021/12/29 10:04:56;;;;;;;91.90;17.25;;;8.00;99.90;;;;;;5094578;28;20043;-66
2021/12/29 10:07:22;;;;;;;98.93;17.27;;;8.00;99.90;;;;;;5094429;28;20040;-66
2021/12/29 10:10:00;;;;;;;92.82;17.30;;;8.00;99.90;;;;;;5099029;28;20066;-66
2021/12/29 10:12:27;;;;;;;92.90;17.63;;;8.10;99.90;;;;;;5113742;28;20047;-66
2021/12/29 10:14:59;;;;;;;93.03;18.08;;;8.10;99.90;;;;;;5093516;28;20037;-66
2021/12/29 10:17:25;;;;;;;;;;;8.10;99.90;;;;;;5090058;28;20093;-65
2021/12/29 10:20:02;;;;;;;88.90;16.92;;;8.10;99.90;;;;;;5103990;28;19920;-66
2021/12/29 10:22:28;;;;;;;96.07;18.27;;;8.10;99.90;;;;;;5111187;28;20058;-65
2021/12/29 10:28:35;;;;;;;104.63;18.13;;;8.20;99.90;;;;;;5092696;28;20125;-67
2021/12/29 10:31:13;;;;;;;106.72;17.73;;;8.20;99.90;;;;;;5093157;28;20139;-66
2021/12/29 10:33:41;;;;;;;106.93;19.65;;;8.20;99.90;;;;;;5093709;28;20088;-65
2021/12/29 10:39:50;;;;;;;104.55;16.30;;;8.20;99.90;;;;;;5094174;28;20414;-66
2021/12/29 10:42:21;;;;;;;93.40;15.98;;;8.30;99.90;;;;;;5075979;28;20040;-66
2021/12/29 10:44:53;;;;;;;91.22;13.43;;;8.30;99.90;;;;;;5092045;28;20032;-67
2021/12/29 10:47:25;;;;;;;75.47;13.68;;;8.40;99.90;;;;;;5092638;28;20042;-67
2021/12/29 10:49:55;;;;;;;;;;;8.40;99.90;;;;;;5092304;28;20040;-66
2021/12/29 10:52:59;;;;;;;93.78;12.55;;;8.40;99.90;;;;;;5084274;28;19926;-67
2021/12/29 10:55:35;;;;;;;75.75;13.35;;;8.40;99.90;;;;;;5084076;28;20498;-65
2021/12/29 10:58:11;;;;;;;75.90;13.98;;;8.40;99.90;;;;;;5092740;28;20038;-66
2021/12/29 11:00:39;;;;;;;77.75;13.20;;;8.40;99.90;;;;;;5091508;28;20044;-66
2021/12/29 11:03:08;;;;;;;76.53;13.50;;;8.50;99.90;;;;;;5087917;28;20063;-66
2021/12/29 11:05:40;;;;;;;94.28;13.02;;;8.50;99.90;;;;;;5071791;28;20071;-68
2021/12/29 11:08:08;;;;;;;73.65;13.90;;;8.60;99.90;;;;;;5090314;28;20045;-65
2021/12/29 11:10:35;;;;;;;73.55;13.57;;;8.60;99.90;;;;;;5092947;28;20048;-66
2021/12/29 11:13:00;;;;;;;76.65;13.40;;;8.60;99.90;;;;;;5092971;28;20051;-67
2021/12/29 11:15:34;;;;;;;77.55;14.00;;;8.60;99.90;;;;;;5085283;28;20049;-67
2021/12/29 11:18:06;;;;;;;65.47;13.90;;;8.60;99.90;;;;;;5097767;28;20145;-67
2021/12/29 11:20:34;;;;;;;76.50;13.93;;;8.60;99.90;;;;;;5075009;28;20044;-66
2021/12/29 11:23:08;;;;;;;69.38;14.18;;;8.60;99.90;;;;;;5090302;28;20028;-66
2021/12/29 11:25:35;;;;;;;76.40;14.65;;;8.50;99.90;;;;;;5083362;28;20040;-66
2021/12/29 11:28:01;;;;;;;72.15;14.98;;;8.50;99.90;;;;;;5082221;28;20643;-67
2021/12/29 11:30:27;;;;;;;77.55;15.85;;;8.60;99.90;;;;;;5091442;28;20402;-68
2021/12/29 11:33:08;;;;;;;82.82;15.57;;;8.60;99.90;;;;;;5092127;28;20478;-66
2021/12/29 11:35:43;;;;;;;85.40;15.70;;;8.60;99.90;;;;;;5091039;28;20379;-67
2021/12/29 11:38:11;;;;;;;83.93;16.52;;;8.60;99.90;;;;;;5090487;28;20165;-67
2021/12/29 11:40:40;;;;;;;96.43;16.17;;;8.60;99.90;;;;;;5089488;28;20063;-67
2021/12/29 11:43:08;;;;;;;87.85;17.38;;;8.50;99.90;;;;;;5072937;28;20033;-67
2021/12/29 11:45:35;;;;;;;77.95;15.60;;;8.50;99.90;;;;;;5073625;28;20032;-67
2021/12/29 11:48:01;;;;;;;96.07;17.05;;;8.50;99.90;;;;;;5088554;28;20499;-67
2021/12/29 11:50:31;;;;;;;81.72;16.92;;;8.50;99.90;;;;;;5075071;28;20028;-67
2021/12/29 11:53:28;;;;;;;72.70;16.45;;;8.50;99.90;;;;;;5089252;28;20046;-67
2021/12/29 11:56:14;;;;;;;68.45;14.85;;;8.50;99.90;;;;;;5088876;28;20395;-68
2021/12/29 11:58:41;;;;;;;83.75;16.83;;;8.50;99.90;;;;;;5078954;28;20126;-67
2021/12/29 12:01:14;;;;;;;80.03;16.38;;;8.40;99.90;;;;;;5078659;28;20044;-67
2021/12/29 12:03:54;;;;;;;80.25;15.20;;;8.50;99.90;;;;;;5081222;28;20032;-67
2021/12/29 12:06:24;;;;;;;71.63;14.15;;;8.50;99.90;;;;;;5100794;28;20044;-67
2021/12/29 12:09:03;;;;;;;65.00;15.05;;;8.50;99.90;;;;;;5099490;28;20039;-67
2021/12/29 12:11:28;;;;;;;70.32;16.42;;;8.40;99.90;;;;;;5102032;28;20134;-67
2021/12/29 12:13:54;;;;;;;75.82;15.35;;;8.50;99.90;;;;;;5097054;28;20127;-67
2021/12/29 12:16:21;;;;;;;79.13;15.93;;;8.50;99.90;;;;;;5088378;28;20036;-68
2021/12/29 12:18:50;;;;;;;85.07;16.42;;;8.50;99.90;;;;;;5086710;28;20145;-68
2021/12/29 12:21:24;;;;;;;82.53;16.70;;;8.40;99.90;;;;;;5086282;28;20095;-68
2021/12/29 12:23:52;;;;;;;93.78;18.55;;;8.40;99.90;;;;;;5082164;28;20086;-67
2021/12/29 12:26:22;;;;;;;82.38;17.55;;;8.40;99.90;;;;;;5087455;28;20036;-67
2021/12/29 12:28:50;;;;;;;83.18;18.15;;;8.50;99.90;;;;;;5091099;28;20424;-68
2021/12/29 12:31:23;;;;;;;73.30;17.85;;;8.50;99.90;;;;;;5087284;28;20393;-68
2021/12/29 12:33:51;;;;;;;76.65;18.58;;;8.50;99.90;;;;;;5097497;28;20506;-68
2021/12/29 12:36:17;;;;;;;79.95;19.95;;;8.50;99.90;;;;;;5092025;28;20437;-68
2021/12/29 12:38:43;;;;;;;73.93;19.20;;;8.50;99.90;;;;;;5090335;28;20128;-68
2021/12/29 12:41:15;;;;;;;76.70;20.38;;;8.50;99.90;;;;;;5092284;28;20465;-68
2021/12/29 12:44:00;;;;;;;77.35;21.88;;;8.50;99.90;;;;;;5089158;28;20040;-68
2021/12/29 12:46:33;;;;;;;84.00;20.35;;;8.50;99.90;;;;;;5089646;28;20538;-68
2021/12/29 12:48:59;;;;;;;91.00;21.02;;;8.50;99.90;;;;;;5086838;28;20043;-68
2021/12/29 12:51:25;;;;;;;87.40;20.40;;;8.40;99.90;;;;;;5089083;28;20032;-67
2021/12/29 12:53:51;;;;;;;80.80;18.95;;;8.50;99.90;;;;;;5084705;28;20399;-68
2021/12/29 12:56:22;;;;;;;78.57;19.08;;;8.40;99.90;;;;;;5091023;28;20044;-69
2021/12/29 12:58:50;;;;;;;74.78;18.88;;;8.40;99.90;;;;;;5090863;28;20032;-67
2021/12/29 13:01:19;;;;;;;77.55;19.02;;;8.40;99.90;;;;;;5080753;28;20041;-67
2021/12/29 13:03:45;;;;;;;82.75;19.50;;;8.40;99.90;;;;;;5094976;28;20032;-67
2021/12/29 13:06:17;;;;;;;85.20;19.00;;;8.40;99.90;;;;;;5091509;28;20119;-67
2021/12/29 13:08:45;;;;;;;84.13;19.40;;;8.40;99.90;;;;;;5090037;28;20139;-67